Capitol Logistics 310


CYHZ
Robert L. Stanfield International Airport
Halifax, CA
KRFD
Chicago/Rockford International Airport
Rockford, US

Route Details

Aircraft Information
Primary: Boeing 767-300BDSF
Backup: Not Available
Route Data
Distance: 1123nm
Sched. Duration: 2h 29m
Avg. Duration: 3h 17m (+88m)
Times Flown: 10
Recm'd Route: YSJ DERDO YUL Q824 LETAK Q848 SLLAP BAE
Planned Altitude: 34,000ft
Origin Wx: CYHZ 130200Z 19010KT 5SM BR OVC002 18/18 A2969 RMK SF8 SLP056 DENSITY ALT 1200FT
Dest. Wx: KRFD 130154Z 00000KT 10SM CLR 24/15 A2994 RMK AO2 SLP133 T02390150
Notes: LOBSTER KING

Financial History
Total Freight: 1,125,567lbs
Average Load: 112,557lbs/flt
Fuel Used: 361,275lbs
Avg. Fuel Used: 36,128lbs/flt
Fuel Expense: $289,020
Avg. Fuel Expense: $28,902
Avg. Fuel Cost: $0.80/lbs
Total Gross Income: $1,795,021
Pilot Pay: $2,220
Total Expenses: $194,382
Total Revenue: $1,303,261
Average Revenue: $179,502.14